Rockland, MI (49960)

11:05 AM EDT on July 24, 2016 (GMT -0400)
MesoWest | | Change Station

Elev 1184 ft 46.77 °N, 88.95 °W | Updated 40 minutes ago

Mostly Cloudy
Mostly Cloudy
74 °F
Feels Like 73 °F
N
5
Wind Variable Wind from WSW
Gusts 14.0 mph

Today
High -- | Low -- °F
--% Chance of Precip.
Yesterday
High -- | Low -- °F
Precip. -- in
Pressure 29.82 in
Visibility 10.0 miles
Clouds Mostly Cloudy 1900 ft
Mostly Cloudy 2300 ft
Mostly Cloudy 4600 ft
Heat Index 73 °F
Dew Point 71 °F
Humidity 89%
Rainfall in
Snow Depth Not available.
6:28 AM 9:37 PM
Waning Gibbous, 75% visible
METAR KLNL 241455Z AUTO 24006KT 10SM BKN019 BKN023 BKN046 24/20 A2982 RMK AO2 60001 T02420197
Pressure 29.82 in
Visibility 10.0 miles
Clouds Mostly Cloudy 1900 ft
Mostly Cloudy 2300 ft
Mostly Cloudy 4600 ft
Heat Index 73 °F
Dew Point 71 °F
Humidity 89%
Rainfall in
Snow Depth Not available.
6:28 AM 9:37 PM
Waning Gibbous, 75% visible
METAR KLNL 241455Z AUTO 24006KT 10SM BKN019 BKN023 BKN046 24/20 A2982 RMK AO2 60001 T02420197

10-Day Weather Forecast

Almanac

Astronomy

Jul. 24, 2016 Rise Set
Actual Time
Civil Twilight
Nautical Twilight
Astronomical Twilight
Moon
Length of Visible Light
Length of Day
Tomorrow will be .
, % of the Moon is Illuminated

Today's Extremes

State Highs State Lows

Community

WunderPhotos

Upload Photos

1,927,073 photos uploaded!

WunderBlog® & News

Nearby

Air Quality

  Air Quality AQ Index Pollutant
Not available.

Snow Depth

Station Depth Elevation

Earthquake Activity

City Distance Mag. Time & Date
Minimum magnitude displayed is 2.5.

Coastal Water Temperatures

Place Temperature

Stations

Nearby Weather Stations

Station Location Temp. Windchill Dew Point Humidity Wind Precip. Elev Updated Type
                   

Watches & Warnings

There are currently no watches in effect.